Latest Weather Observations for Grove

IDT60901

Issued at 11:01 pm EDT Wednesday 8 December 2021 (issued every 10 minutes, with the page automatically refreshed every 10 minutes)

About weather observations | Map of Hobart area stations | Latest observations for Hobart area | Other Formats
Station Details ID: 094220 Name: GROVE (RESEARCH STATION) Lat: -42.98 Lon: 147.08 Height: 65.0 m
Data from the previous 72 hours. | See also: Recent months at Grove
Date/Time
EDT
Temp
°C
App
Temp
°C
Dew
Point
°C
Rel
Hum
%
Delta-T
°C
Wind Press
QNH
hPa
Press
MSL
hPa
Rain since
9am
mm
Dir  Spd
km/h
Gust
km/h
Spd
kts
Gust
kts
08/11:00pm 9.9 9.1 6.3 78 1.7 CALM 0 0 0 0 - - 0.0
08/10:30pm 10.1 8.1 6.1 76 1.9 NE 6 9 3 5 - - 0.0
08/10:00pm 10.1 7.8 5.7 74 2.0 ENE 7 11 4 6 - - 0.0
08/09:30pm 11.0 9.3 6.0 71 2.3 NE 4 9 2 5 - - 0.0
08/09:00pm 11.0 9.0 6.2 72 2.2 W 6 7 3 4 - - 0.0
08/08:30pm 12.0 10.0 6.1 67 2.8 SSE 6 9 3 5 - - 0.0
08/08:00pm 12.4 9.9 6.5 67 2.8 E 9 15 5 8 - - 0.0
08/07:30pm 12.4 9.4 5.8 64 3.1 E 11 17 6 9 - - 0.0
08/07:00pm 13.2 10.3 6.3 63 3.3 E 11 15 6 8 - - 0.0
08/06:30pm 13.5 11.3 6.1 61 3.5 ESE 7 11 4 6 - - 0.0
08/06:00pm 13.5 11.3 6.4 62 3.4 E 7 13 4 7 - - 0.0
08/05:30pm 14.1 11.5 6.2 59 3.8 ENE 9 15 5 8 - - 0.0
08/05:00pm 14.6 11.9 5.7 55 4.2 SE 9 13 5 7 - - 0.0
08/04:30pm 14.0 11.2 6.8 62 3.5 E 11 17 6 9 - - 0.0
08/04:00pm 14.4 10.9 7.0 61 3.6 E 15 24 8 13 - - 0.0
08/03:30pm 14.4 10.4 6.7 60 3.7 E 17 28 9 15 - - 0.0
08/03:00pm 14.3 10.2 6.4 59 3.8 E 17 26 9 14 - - 0.0
08/02:30pm 13.7 8.8 5.3 57 3.9 ESE 20 32 11 17 - - 0.0
08/02:00pm 15.0 11.0 4.7 50 4.8 ENE 15 24 8 13 - - 0.0
08/01:30pm 16.3 11.9 6.7 53 4.7 E 19 32 10 17 - - 0.0
08/01:00pm 15.8 11.9 3.3 43 5.7 SW 13 19 7 10 - - 0.0
08/12:30pm 15.8 12.9 1.2 37 6.4 N 6 9 3 5 - - 0.0
08/12:00pm 14.2 11.7 1.5 42 5.5 WNW 4 11 2 6 - - 0.0
08/11:30am 15.3 12.3 2.1 41 5.9 ESE 7 11 4 6 - - 0.0
08/11:00am 14.0 10.9 3.8 50 4.6 S 9 15 5 8 - - 0.0
08/10:30am 13.6 10.5 3.7 51 4.5 S 9 17 5 9 - - 0.0
08/10:00am 12.6 9.0 3.0 52 4.2 SW 11 15 6 8 - - 0.0
08/09:30am 12.1 8.7 4.1 58 3.6 S 11 19 6 10 - - 0.0
08/09:00am 12.4 10.3 5.8 64 3.1 SSE 6 11 3 6 - - 0.4
08/08:30am 10.6 8.9 5.8 72 2.2 ESE 4 9 2 5 - - 0.4
08/08:00am 9.6 8.0 6.3 80 1.5 E 4 7 2 4 - - 0.4
08/07:30am 6.7 5.5 6.4 98 0.1 NE 2 6 1 3 - - 0.4
08/07:00am 4.7 3.1 4.6 99 0.0 ENE 2 7 1 4 - - 0.4
08/06:30am 3.0 0.3 2.7 98 0.1 WNW 6 7 3 4 - - 0.4
08/06:00am 1.9 -1.2 1.6 98 0.1 ENE 7 7 4 4 - - 0.4
08/05:30am 1.4 -1.8 1.0 97 0.2 N 7 7 4 4 - - 0.4
08/05:00am 2.1 -0.9 1.7 97 0.2 ENE 7 9 4 5 - - 0.4
08/04:30am 1.8 -0.3 1.4 97 0.2 NNE 2 9 1 5 - - 0.4
08/04:00am 2.5 -0.3 2.2 98 0.1 NNE 6 9 3 5 - - 0.4
08/03:30am 2.4 0.3 2.0 97 0.2 NNE 2 9 1 5 - - 0.4
08/03:00am 2.3 -0.6 1.7 96 0.2 NNE 6 9 3 5 - - 0.4
08/02:30am 3.0 0.3 2.6 97 0.2 NNW 6 7 3 4 - - 0.4
08/02:00am 3.3 0.4 2.6 95 0.3 ENE 7 9 4 5 - - 0.4
08/01:30am 4.1 1.0 3.4 95 0.3 NE 9 15 5 8 - - 0.4
08/01:00am 4.4 1.3 3.5 94 0.4 NNE 9 13 5 7 - - 0.4
08/12:30am 4.6 2.5 3.9 95 0.3 N 4 9 2 5 - - 0.4
08/12:00am 5.2 2.2 4.0 92 0.5 E 9 11 5 6 - - 0.4
 
Date/Time
EDT
Temp
°C
App
Temp
°C
Dew
Point
°C
Rel
Hum
%
Delta-T
°C
Wind Press
QNH
hPa
Press
MSL
hPa
Rain since
9am
mm
Dir  Spd
km/h
Gust
km/h
Spd
kts
Gust
kts
07/11:30pm 5.7 3.1 4.2 90 0.6 NNW 7 11 4 6 - - 0.4
07/11:00pm 6.1 3.1 4.1 87 0.9 ENE 9 17 5 9 - - 0.4
07/10:30pm 7.5 5.1 4.3 80 1.4 WSW 6 11 3 6 - - 0.4
07/10:00pm 8.0 4.7 4.4 78 1.6 NW 11 17 6 9 - - 0.4
07/09:30pm 8.7 5.8 4.7 76 1.8 NW 9 13 5 7 - - 0.4
07/09:00pm 10.9 8.5 4.1 63 3.0 SW 6 7 3 4 - - 0.4
07/08:30pm 11.0 8.2 3.3 59 3.4 SSW 7 13 4 7 - - 0.4
07/08:00pm 12.3 8.9 3.8 56 3.8 WSW 11 17 6 9 - - 0.4
07/07:30pm 11.8 7.4 2.8 54 3.9 WSW 15 24 8 13 - - 0.4
07/07:00pm 12.6 6.4 2.2 49 4.5 WSW 24 41 13 22 - - 0.4
07/06:30pm 15.1 10.0 3.3 45 5.4 WSW 19 33 10 18 - - 0.4
07/06:00pm 15.3 11.4 5.5 52 4.7 SSW 15 26 8 14 - - 0.4
07/05:30pm 14.7 12.5 6.0 56 4.2 NNE 7 11 4 6 - - 0.4
07/05:00pm 13.7 10.4 6.3 61 3.5 SE 13 24 7 13 - - 0.4
07/04:30pm 14.1 10.5 5.2 55 4.2 WNW 13 17 7 9 - - 0.4
07/04:00pm 14.9 11.8 5.4 53 4.5 NNW 11 17 6 9 - - 0.4
07/03:30pm 14.3 11.2 8.9 70 2.7 NW 15 20 8 11 - - 0.4
07/03:00pm 14.2 10.7 5.3 55 4.2 SSE 13 20 7 11 - - 0.0
07/02:30pm 14.5 11.0 5.3 54 4.3 NW 13 20 7 11 - - 0.0
07/02:00pm 14.2 8.2 3.4 48 4.9 WSW 24 39 13 21 - - 0.0
07/01:30pm 14.5 12.8 8.2 66 3.2 N 7 13 4 7 - - 0.0
07/01:00pm 14.1 12.6 8.3 68 2.9 ESE 6 11 3 6 - - 0.0
07/12:30pm 12.2 10.0 7.9 75 2.1 WSW 9 13 5 7 - - 0.0
07/12:00pm 12.5 7.7 4.7 59 3.6 SW 19 39 10 21 - - 0.0
07/11:30am 13.4 8.3 5.8 60 3.6 WSW 22 33 12 18 - - 0.0
07/11:00am 13.5 10.0 5.4 58 3.8 SW 13 26 7 14 - - 0.0
07/10:30am 13.6 10.3 6.2 61 3.5 SW 13 24 7 13 - - 0.0
07/10:00am 12.7 8.1 5.6 62 3.3 SW 19 30 10 16 - - 0.0
07/09:30am 13.0 9.5 7.0 67 2.9 W 15 28 8 15 - - 0.0
07/09:00am 12.6 9.5 7.1 69 2.7 WSW 13 22 7 12 - - 3.0
07/08:30am 12.3 9.8 8.2 76 2.0 WSW 11 15 6 8 - - 3.0
07/08:00am 12.0 8.7 9.6 85 1.2 SW 17 24 9 13 - - 3.0
07/07:30am 12.4 11.1 11.3 93 0.6 W 9 11 5 6 - - 3.0
07/07:00am 12.6 11.5 10.8 89 0.9 SSW 7 11 4 6 - - 2.8
07/06:30am 12.7 10.7 11.4 92 0.7 SSW 13 19 7 10 - - 2.8
07/06:00am 13.4 11.6 12.0 91 0.8 S 13 20 7 11 - - 2.0
07/05:30am 13.3 12.0 12.4 94 0.5 SSW 11 17 6 9 - - 1.8
07/05:00am 14.0 11.8 12.0 88 1.1 SW 15 26 8 14 - - 0.4
07/04:30am 15.7 14.7 11.1 74 2.5 NW 7 15 4 8 - - 0.0
07/04:00am 15.7 14.8 10.5 71 2.8 NW 6 9 3 5 - - 0.0
07/03:30am 16.5 14.1 10.1 66 3.4 ENE 13 24 7 13 - - 0.0
07/03:00am 15.7 14.3 9.6 67 3.2 NNE 7 17 4 9 - - 0.0
07/02:30am 15.8 14.7 9.9 68 3.1 NNE 6 11 3 6 - - 0.0
07/02:00am 15.5 14.7 9.8 69 3.0 W 4 7 2 4 - - 0.0
07/01:30am 15.9 14.6 9.8 67 3.2 NE 7 13 4 7 - - 0.0
07/01:00am 16.5 13.7 9.9 65 3.5 NE 15 20 8 11 - - 0.0
07/12:30am 16.0 13.9 9.7 66 3.3 NNE 11 20 6 11 - - 0.0
07/12:00am 16.0 13.8 9.4 65 3.4 N 11 24 6 13 - - 0.0
 
Date/Time
EDT
Temp
°C
App
Temp
°C
Dew
Point
°C
Rel
Hum
%
Delta-T
°C
Wind Press
QNH
hPa
Press
MSL
hPa
Rain since
9am
mm
Dir  Spd
km/h
Gust
km/h
Spd
kts
Gust
kts
06/11:30pm 16.5 12.9 9.7 64 3.6 N 19 37 10 20 - - 0.0
06/11:00pm 17.1 13.3 9.8 62 3.8 N 20 33 11 18 - - 0.0
06/10:30pm 17.6 12.3 9.8 60 4.1 NNE 28 43 15 23 - - 0.0
06/10:17pm 17.6 12.3 9.8 60 4.1 N 28 50 15 27 - - 0.0
06/10:00pm 17.6 13.4 9.8 60 4.1 N 22 43 12 23 - - 0.0
06/09:53pm 17.9 12.5 9.5 58 4.4 NNE 28 54 15 29 - - 0.0
06/09:30pm 18.0 14.1 9.6 58 4.4 NNE 20 43 11 23 - - 0.0
06/09:00pm 18.5 13.9 9.6 56 4.7 NNE 24 41 13 22 - - 0.0
06/08:30pm 18.6 14.4 9.9 57 4.6 N 22 41 12 22 - - 0.0
06/08:00pm 18.8 15.6 10.1 57 4.7 N 17 33 9 18 - - 0.0
06/07:30pm 19.7 15.7 10.4 55 5.0 N 22 41 12 22 - - 0.0
06/07:00pm 20.1 16.0 10.2 53 5.3 NNE 22 41 12 22 - - 0.0
06/06:30pm 20.1 16.1 10.5 54 5.2 NNE 22 39 12 21 - - 0.0
06/06:02pm 21.1 16.2 11.4 54 5.4 NNE 28 46 15 25 - - 0.0
06/06:00pm 21.1 16.5 11.2 53 5.5 NNE 26 46 14 25 - - 0.0
06/05:32pm 21.2 16.1 10.7 51 5.8 N 28 52 15 28 - - 0.0
06/05:30pm 21.2 16.6 11.0 52 5.6 N 26 52 14 28 - - 0.0
06/05:00pm 21.3 15.4 10.5 50 5.9 N 32 54 17 29 - - 0.0
06/04:50pm 21.8 16.9 11.2 51 5.9 N 28 48 15 26 - - 0.0
06/04:30pm 22.8 18.8 11.8 50 6.2 N 24 43 13 23 - - 0.0
06/04:00pm 23.1 18.9 11.2 47 6.7 N 24 43 13 23 - - 0.0
06/03:30pm 22.9 18.8 11.3 48 6.5 N 24 46 13 25 - - 0.0
06/03:00pm 22.8 18.0 10.3 45 6.9 NNE 26 43 14 23 - - 0.0
06/02:30pm 22.8 17.9 11.2 48 6.5 N 28 48 15 26 - - 0.0
06/02:27pm 22.5 17.4 10.6 47 6.6 N 28 48 15 26 - - 0.0
06/02:00pm 22.4 17.9 9.9 45 6.8 N 24 39 13 21 - - 0.0
06/01:30pm 22.2 19.0 11.9 52 5.8 NNE 20 35 11 19 - - 0.0
06/01:00pm 20.7 17.7 10.5 52 5.6 ENE 17 28 9 15 - - 0.0
06/12:30pm 20.7 17.3 9.3 48 6.1 NNE 17 28 9 15 - - 0.0
06/12:17pm 20.3 17.8 11.0 55 5.1 N 15 46 8 25 - - 0.0
06/12:00pm 20.0 18.6 11.0 56 4.9 ESE 9 15 5 8 - - 0.0
06/11:30am 18.4 15.6 8.4 52 5.2 NW 13 24 7 13 - - 0.0
06/11:00am 18.2 14.3 8.7 54 4.9 NNW 19 48 10 26 - - 0.0
06/10:30am 18.6 15.4 9.9 57 4.6 NNW 17 30 9 16 - - 0.0
06/10:00am 18.0 16.4 8.8 55 4.8 ENE 7 13 4 7 - - 0.0
06/09:30am 16.3 14.6 8.5 60 4.0 S 7 13 4 7 - - 0.0
06/09:00am 13.7 12.0 9.9 78 2.0 SW 9 11 5 6 - - 0.0
06/08:30am 11.4 10.2 9.5 88 1.0 S 6 9 3 5 - - 0.0
06/08:00am 10.0 9.6 8.4 90 0.8 CALM 0 7 0 4 - - 0.0
06/07:30am 9.6 7.9 8.2 91 0.7 SSW 7 11 4 6 - - 0.0
06/07:00am 8.8 6.7 8.2 96 0.3 SW 9 11 5 6 - - 0.0
06/06:30am 7.7 5.9 7.3 97 0.2 S 6 7 3 4 - - 0.0
06/06:00am 6.5 4.3 6.2 98 0.1 NNE 7 13 4 7 - - 0.0
06/05:30am 6.0 3.7 5.6 97 0.2 NE 7 11 4 6 - - 0.0
06/05:00am 6.2 3.9 5.8 97 0.2 N 7 9 4 5 - - 0.0
06/04:30am 7.2 5.2 6.9 98 0.1 NE 7 11 4 6 - - 0.0
06/04:00am 7.0 4.1 6.7 98 0.1 NE 11 13 6 7 - - 0.0
06/03:30am 6.8 5.2 6.4 97 0.2 NNE 4 9 2 5 - - 0.0
06/03:00am 7.2 5.3 6.6 96 0.3 SW 6 9 3 5 - - 0.0
06/02:30am 7.8 7.2 7.2 96 0.3 CALM 0 0 0 0 - - 0.0
06/02:00am 7.8 6.4 7.2 96 0.3 NE 4 6 2 3 - - 0.0
06/01:30am 8.0 6.3 7.6 97 0.2 N 6 9 3 5 - - 0.0
06/01:00am 8.0 6.3 7.4 96 0.3 N 6 7 3 4 - - 0.0
06/12:30am 8.5 6.9 8.1 97 0.2 NNW 6 7 3 4 - - 0.0
06/12:00am 8.8 7.2 7.9 94 0.4 NE 6 7 3 4 - - 0.0
 
Date/Time
EDT
Temp
°C
App
Temp
°C
Dew
Point
°C
Rel
Hum
%
Delta-T
°C
Wind Press
QNH
hPa
Press
MSL
hPa
Rain since
9am
mm
Dir  Spd
km/h
Gust
km/h
Spd
kts
Gust
kts
05/11:30pm 9.8 8.4 8.7 93 0.5 NE 6 7 3 4 - - 0.0

Latest Capital City Observations: Canberra | Sydney | Melbourne | Brisbane | Adelaide | Perth | Hobart | Darwin

Other formats

Comma delimited format used in spreadsheet applications
http://www.bom.gov.au/fwo/IDT60901/IDT60901.95977.axf

JavaScript Object Notation format (JSON) in row-major order
http://www.bom.gov.au/fwo/IDT60901/IDT60901.95977.json

Data quality

Most of these data are generated automatically and are frequently updated. Quality checks on data are not normally performed. It is possible for incorrect values to appear. Refer to information at About Latest Weather Observations and please check the disclaimer before using these data.